Time;durP1;ratioP1;P1;durP2;ratioP2;P2;SDS_P1;SDS_P2;PMS_P1;PMS_P2;Temp;Humidity;BMP_temperature;BMP_pressure;BME280_temperature;BME280_humidity;BME280_pressure;Samples;Min_cycle;Max_cycle;Signal;HPM_P1;HPM_P2
2022/11/07 00:01:16;;;;;;;8.05;1.80;;;11.40;99.90;;;;;;5060163;28;20024;-69
2022/11/07 00:03:41;;;;;;;5.57;1.88;;;11.50;99.90;;;;;;5079613;28;20069;-69
2022/11/07 00:06:07;;;;;;;4.68;1.88;;;11.50;99.90;;;;;;5079948;28;20036;-69
2022/11/07 00:08:33;;;;;;;4.88;1.80;;;11.40;99.90;;;;;;5061448;28;20032;-68
2022/11/07 00:10:59;;;;;;;4.25;2.00;;;11.40;99.90;;;;;;5061594;28;20024;-69
2022/11/07 00:13:26;;;;;;;5.00;1.92;;;11.30;99.90;;;;;;5081090;28;20051;-68
2022/11/07 00:15:53;;;;;;;4.88;1.77;;;11.20;99.90;;;;;;5062015;28;20051;-68
2022/11/07 00:18:19;;;;;;;4.63;1.95;;;11.20;99.90;;;;;;5079373;28;20305;-68
2022/11/07 00:20:44;;;;;;;5.47;2.03;;;11.20;99.90;;;;;;5080351;28;20034;-68
2022/11/07 00:23:10;;;;;;;4.00;2.20;;;11.20;99.90;;;;;;5060393;28;20028;-68
2022/11/07 00:25:35;;;;;;;6.63;2.28;;;11.20;99.90;;;;;;5076402;28;20197;-68
2022/11/07 00:28:01;;;;;;;4.20;1.70;;;11.30;99.90;;;;;;5080546;28;20115;-68
2022/11/07 00:30:26;;;;;;;4.60;1.90;;;11.20;99.90;;;;;;5078762;28;20106;-68
2022/11/07 00:32:52;;;;;;;4.38;2.05;;;11.20;99.90;;;;;;5079933;28;20130;-68
2022/11/07 00:35:17;;;;;;;6.50;2.35;;;11.20;99.90;;;;;;5079152;28;20028;-69
2022/11/07 00:37:43;;;;;;;5.90;2.03;;;11.40;99.90;;;;;;5080481;28;20063;-68
2022/11/07 00:40:09;;;;;;;4.68;1.98;;;11.30;99.90;;;;;;5076029;28;21228;-69
2022/11/07 00:42:34;;;;;;;6.75;1.95;;;11.40;99.90;;;;;;5081618;28;20695;-69
2022/11/07 00:45:00;;;;;;;4.63;2.25;;;11.40;99.90;;;;;;5079811;28;20036;-69
2022/11/07 00:47:25;;;;;;;9.23;2.33;;;11.40;99.90;;;;;;5079350;28;20522;-69
2022/11/07 00:49:51;;;;;;;4.80;1.92;;;11.30;99.90;;;;;;5079877;28;20028;-69
2022/11/07 00:52:17;;;;;;;4.63;2.00;;;11.30;99.90;;;;;;5079807;28;20040;-69
2022/11/07 00:54:42;;;;;;;5.50;1.98;;;11.20;99.90;;;;;;5079655;28;20131;-68
2022/11/07 00:57:08;;;;;;;8.02;2.20;;;11.30;99.90;;;;;;5075604;28;20076;-69
2022/11/07 00:59:33;;;;;;;6.45;2.28;;;11.30;99.90;;;;;;5079098;28;20036;-68
2022/11/07 01:01:59;;;;;;;4.35;2.00;;;11.20;99.90;;;;;;5063510;28;20134;-68
2022/11/07 01:07:09;;;;;;;8.48;2.00;;;11.10;99.90;;;;;;5080957;28;20108;-68
2022/11/07 01:09:34;;;;;;;5.45;2.17;;;11.00;99.90;;;;;;5059177;28;20037;-68
2022/11/07 01:12:00;;;;;;;6.15;2.20;;;11.00;99.90;;;;;;5079262;28;20032;-68
2022/11/07 01:14:25;;;;;;;6.75;2.30;;;11.00;99.90;;;;;;5063036;28;20052;-69
2022/11/07 01:16:51;;;;;;;5.53;2.05;;;11.10;99.90;;;;;;5079913;28;20054;-69
2022/11/07 01:19:18;;;;;;;4.32;2.30;;;11.00;99.90;;;;;;5077434;28;20071;-68
2022/11/07 01:21:44;;;;;;;7.25;2.45;;;11.00;99.90;;;;;;5080613;28;20078;-68
2022/11/07 01:24:11;;;;;;;5.55;1.90;;;11.00;99.90;;;;;;5077712;28;20127;-68
2022/11/07 01:26:37;;;;;;;8.20;2.10;;;10.90;99.90;;;;;;5056545;28;20031;-68
2022/11/07 01:29:04;;;;;;;5.78;2.10;;;10.80;99.90;;;;;;5079586;28;20073;-68
2022/11/07 01:31:32;;;;;;;5.00;1.70;;;10.70;99.90;;;;;;5077858;28;20054;-68
2022/11/07 01:33:59;;;;;;;5.03;1.85;;;10.80;99.90;;;;;;5079037;28;20028;-68
2022/11/07 01:36:25;;;;;;;5.93;2.30;;;10.80;99.90;;;;;;5075085;28;20032;-68
2022/11/07 01:38:51;;;;;;;6.82;1.95;;;10.70;99.90;;;;;;5074225;28;20032;-68
2022/11/07 01:41:24;;;;;;;9.85;1.85;;;10.70;99.90;;;;;;5076808;28;20499;-68
2022/11/07 01:44:06;;;;;;;5.18;1.90;;;10.70;99.90;;;;;;5059291;28;20100;-68
2022/11/07 01:46:35;;;;;;;7.47;1.97;;;10.60;99.90;;;;;;5079029;28;20040;-68
2022/11/07 01:49:04;;;;;;;7.15;2.20;;;10.60;99.90;;;;;;5079496;28;20510;-68
2022/11/07 01:51:34;;;;;;;5.60;1.88;;;10.60;99.90;;;;;;5057493;28;20111;-68
2022/11/07 01:54:00;;;;;;;5.60;2.00;;;10.50;99.90;;;;;;5061045;28;20190;-68
2022/11/07 01:56:28;;;;;;;4.43;1.88;;;10.60;99.90;;;;;;5077506;28;20020;-69
2022/11/07 01:58:55;;;;;;;5.90;1.90;;;10.50;99.90;;;;;;5078935;28;20040;-68
2022/11/07 02:01:21;;;;;;;4.57;1.70;;;10.60;99.90;;;;;;5079020;28;20112;-68
2022/11/07 02:03:48;;;;;;;5.72;1.75;;;10.60;99.90;;;;;;5063244;28;20028;-69
2022/11/07 02:06:21;;;;;;;5.47;1.83;;;10.60;99.90;;;;;;5057636;28;20142;-69
2022/11/07 02:08:49;;;;;;;3.25;1.83;;;10.60;99.90;;;;;;5079371;28;20085;-69
2022/11/07 02:11:16;;;;;;;7.40;1.98;;;10.50;99.90;;;;;;5077533;28;20020;-69
2022/11/07 02:13:41;;;;;;;7.85;1.85;;;10.60;99.90;;;;;;5059138;28;20904;-71
2022/11/07 02:16:07;;;;;;;7.43;2.20;;;10.70;99.90;;;;;;5077097;28;20036;-69
2022/11/07 02:18:35;;;;;;;8.25;2.00;;;10.60;99.90;;;;;;5076240;28;20039;-69
2022/11/07 02:21:40;;;;;;;6.53;2.00;;;10.70;99.90;;;;;;5077120;28;20024;-69
2022/11/07 02:24:06;;;;;;;5.30;1.85;;;10.70;99.90;;;;;;5077371;28;20035;-69
2022/11/07 02:26:33;;;;;;;5.90;1.80;;;10.80;99.90;;;;;;5054783;28;20028;-69
2022/11/07 02:29:01;;;;;;;8.23;1.95;;;10.90;99.90;;;;;;5079285;28;20056;-69
2022/11/07 05:30:20;;;;;;;12.48;2.85;;;10.70;99.90;;;;;;4852295;28;1214871;-70
2022/11/07 05:32:45;;;;;;;9.85;2.35;;;10.70;99.90;;;;;;4813270;29;20145;-70
2022/11/07 05:35:11;;;;;;;12.27;2.53;;;10.70;99.90;;;;;;4824426;29;20512;-70
2022/11/07 05:37:36;;;;;;;11.25;2.25;;;10.70;99.90;;;;;;4827317;29;20046;-71
2022/11/07 05:40:03;;;;;;;15.77;2.72;;;10.70;99.90;;;;;;4837842;29;20030;-70
2022/11/07 05:42:28;;;;;;;10.82;2.30;;;10.70;99.90;;;;;;4837940;29;20031;-70
2022/11/07 05:44:54;;;;;;;10.15;2.20;;;10.70;99.90;;;;;;4823980;29;20430;-70
2022/11/07 05:47:19;;;;;;;10.23;2.20;;;10.70;99.90;;;;;;4837496;29;20354;-70
2022/11/07 05:49:45;;;;;;;14.20;2.25;;;10.60;99.90;;;;;;4844243;29;20179;-70
2022/11/07 05:52:10;;;;;;;10.93;2.47;;;10.70;99.90;;;;;;4849991;29;20062;-70
2022/11/07 05:54:36;;;;;;;6.65;1.80;;;10.60;99.90;;;;;;4820415;29;20096;-70
2022/11/07 05:57:01;;;;;;;12.02;2.70;;;10.60;99.90;;;;;;4820816;29;20277;-70
2022/11/07 05:59:27;;;;;;;10.52;2.20;;;10.70;99.90;;;;;;4822590;29;20037;-70
2022/11/07 06:01:52;;;;;;;8.02;2.20;;;10.70;99.90;;;;;;4819868;29;20039;-70
2022/11/07 06:04:18;;;;;;;15.10;2.72;;;10.70;99.90;;;;;;4817519;29;20061;-70
2022/11/07 06:06:44;;;;;;;14.57;2.55;;;10.80;99.90;;;;;;4837645;29;20026;-70
2022/11/07 06:09:09;;;;;;;9.38;2.08;;;10.80;99.90;;;;;;4818317;29;20050;-68
2022/11/07 06:11:35;;;;;;;11.95;2.25;;;11.10;99.90;;;;;;4838040;29;20551;-69
2022/11/07 06:14:00;;;;;;;10.05;2.47;;;11.10;99.90;;;;;;4840556;29;20524;-68
2022/11/07 06:16:26;;;;;;;15.63;3.08;;;11.20;99.90;;;;;;4849520;29;20038;-68
2022/11/07 06:18:51;;;;;;;10.52;2.42;;;11.10;99.90;;;;;;4852048;29;20157;-66
2022/11/07 06:21:17;;;;;;;12.25;2.40;;;11.20;99.90;;;;;;4816926;29;20034;-68
2022/11/07 06:23:43;;;;;;;12.57;2.20;;;11.20;99.90;;;;;;4844243;29;20170;-67
2022/11/07 06:26:08;;;;;;;10.77;2.40;;;11.30;99.90;;;;;;4823561;29;20053;-68
2022/11/07 06:28:34;;;;;;;11.00;2.75;;;11.30;99.90;;;;;;4848180;29;20703;-67
2022/11/07 06:31:01;;;;;;;10.73;2.08;;;11.40;99.90;;;;;;4803322;29;20042;-67
2022/11/07 06:33:28;;;;;;;15.48;2.75;;;11.40;99.90;;;;;;4828714;29;20068;-66
2022/11/07 06:35:54;;;;;;;11.98;1.80;;;11.50;99.90;;;;;;4848267;29;20046;-66
2022/11/07 06:38:20;;;;;;;11.88;2.10;;;11.60;99.90;;;;;;4866182;29;20053;-67
2022/11/07 06:40:45;;;;;;;14.88;2.50;;;11.70;99.90;;;;;;4850583;29;20516;-66
2022/11/07 06:43:16;;;;;;;10.68;2.20;;;11.80;99.90;;;;;;4847869;29;20029;-66
2022/11/07 06:45:43;;;;;;;13.38;2.25;;;11.80;99.90;;;;;;4846962;29;20486;-66
2022/11/07 06:48:09;;;;;;;15.68;2.20;;;;;;;;;;4847614;29;20037;-67
2022/11/07 06:50:35;;;;;;;12.63;2.33;;;11.90;99.90;;;;;;4848397;29;20482;-67
2022/11/07 06:53:07;;;;;;;11.32;2.33;;;12.00;99.90;;;;;;4865161;29;20045;-66
2022/11/07 06:55:34;;;;;;;11.68;2.75;;;11.80;99.90;;;;;;4846426;29;20038;-66
2022/11/07 06:58:00;;;;;;;10.95;2.10;;;11.90;99.90;;;;;;4850402;29;20161;-66
2022/11/07 07:00:27;;;;;;;11.88;2.38;;;12.00;99.90;;;;;;4846015;29;20097;-66
2022/11/07 07:02:53;;;;;;;13.43;2.20;;;12.00;99.90;;;;;;4847461;29;20048;-66
2022/11/07 07:05:19;;;;;;;16.75;2.80;;;12.00;99.90;;;;;;4850787;29;20583;-67
2022/11/07 07:07:44;;;;;;;10.50;2.35;;;12.00;99.90;;;;;;4843461;29;20509;-68
2022/11/07 07:10:10;;;;;;;8.85;2.35;;;12.00;99.90;;;;;;4847995;29;20141;-67
2022/11/07 07:12:35;;;;;;;11.38;2.75;;;12.10;99.90;;;;;;4854004;29;20029;-67
2022/11/07 07:15:01;;;;;;;12.13;2.25;;;12.20;99.90;;;;;;4847262;29;20403;-67
2022/11/07 07:17:26;;;;;;;14.57;2.50;;;12.10;99.90;;;;;;4833115;29;20411;-68
2022/11/07 07:19:52;;;;;;;18.02;2.33;;;12.10;99.90;;;;;;4848747;29;20064;-67
2022/11/07 07:22:18;;;;;;;9.55;1.90;;;12.20;99.90;;;;;;4847372;29;20106;-67
2022/11/07 07:24:43;;;;;;;10.80;2.67;;;12.30;99.90;;;;;;4836701;29;20113;-68
2022/11/07 07:27:09;;;;;;;11.60;2.47;;;12.30;99.90;;;;;;4845798;29;20060;-66
2022/11/07 07:29:35;;;;;;;14.52;2.25;;;12.40;99.90;;;;;;4846321;29;20529;-68
2022/11/07 07:32:00;;;;;;;13.73;4.25;;;12.40;99.90;;;;;;4839996;29;20510;-65
2022/11/07 07:34:26;;;;;;;11.68;3.40;;;12.40;99.90;;;;;;4831675;29;20207;-64
2022/11/07 07:36:53;;;;;;;15.88;2.72;;;12.30;99.90;;;;;;4834652;29;20541;-65
2022/11/07 07:39:18;;;;;;;14.68;2.40;;;12.40;99.90;;;;;;4825893;29;20534;-65
2022/11/07 07:41:44;;;;;;;14.38;2.53;;;12.30;99.90;;;;;;4841274;29;20034;-65
2022/11/07 07:44:09;;;;;;;12.23;2.50;;;12.30;99.90;;;;;;4832875;29;20128;-65
2022/11/07 07:46:35;;;;;;;12.80;2.55;;;12.40;99.90;;;;;;4833630;29;20052;-65
2022/11/07 07:49:00;;;;;;;9.13;2.25;;;12.40;99.90;;;;;;4833848;29;20033;-65
2022/11/07 07:51:26;;;;;;;11.60;2.35;;;12.40;99.90;;;;;;4841890;29;20143;-65
2022/11/07 07:53:52;;;;;;;11.75;2.70;;;12.50;99.90;;;;;;4826083;29;20061;-65
2022/11/07 07:56:18;;;;;;;8.63;2.17;;;12.50;99.90;;;;;;4830637;29;20045;-65
2022/11/07 07:58:44;;;;;;;10.90;2.05;;;12.60;99.90;;;;;;4826755;29;20061;-65
2022/11/07 08:01:10;;;;;;;12.43;2.35;;;12.60;99.90;;;;;;4828448;29;20046;-65
2022/11/07 08:03:36;;;;;;;10.65;2.17;;;12.60;99.90;;;;;;4828547;29;20122;-65
2022/11/07 08:06:04;;;;;;;15.82;2.42;;;12.70;99.90;;;;;;4829778;29;20467;-65
2022/11/07 08:08:30;;;;;;;15.10;2.50;;;12.80;99.90;;;;;;4828851;29;20042;-65
2022/11/07 08:11:04;;;;;;;10.63;2.45;;;12.80;99.90;;;;;;4826911;29;20129;-65
2022/11/07 08:13:30;;;;;;;11.18;2.00;;;12.80;99.90;;;;;;4826915;29;20120;-65
2022/11/07 08:15:56;;;;;;;9.27;2.33;;;12.80;99.90;;;;;;4831623;29;20196;-64
2022/11/07 08:18:22;;;;;;;8.77;2.22;;;12.90;99.90;;;;;;4833035;29;20421;-64
2022/11/07 08:20:53;;;;;;;13.52;2.60;;;12.90;99.90;;;;;;4834055;29;20046;-65
2022/11/07 08:23:19;;;;;;;11.32;2.20;;;12.90;99.90;;;;;;4833928;29;20041;-64
2022/11/07 08:25:50;;;;;;;14.55;2.50;;;13.10;99.90;;;;;;4840899;29;21108;-64
2022/11/07 08:28:15;;;;;;;15.63;2.50;;;12.90;99.90;;;;;;4836723;29;20512;-65
2022/11/07 08:30:41;;;;;;;12.18;2.30;;;13.10;99.90;;;;;;4848805;29;20391;-64
2022/11/07 08:33:07;;;;;;;12.98;2.30;;;13.00;99.90;;;;;;4930628;28;21164;-65
2022/11/07 08:35:33;;;;;;;20.42;2.63;;;13.00;99.90;;;;;;4929190;28;20463;-65
2022/11/07 08:37:58;;;;;;;10.88;2.50;;;13.10;99.90;;;;;;4928698;28;20031;-65
2022/11/07 08:40:24;;;;;;;17.38;2.42;;;13.10;99.90;;;;;;4924083;28;20054;-64
2022/11/07 08:42:50;;;;;;;8.20;2.10;;;13.20;99.90;;;;;;4926944;29;20652;-65
2022/11/07 08:45:16;;;;;;;13.40;2.58;;;13.20;99.90;;;;;;4925996;28;20043;-64
2022/11/07 08:47:42;;;;;;;15.30;2.80;;;13.20;99.90;;;;;;4921347;28;20189;-64
2022/11/07 08:50:08;;;;;;;11.05;2.20;;;13.30;99.90;;;;;;4927758;28;20138;-65
2022/11/07 08:52:34;;;;;;;12.00;2.55;;;13.30;99.90;;;;;;4934750;28;20071;-65
2022/11/07 08:55:01;;;;;;;10.35;2.25;;;13.30;99.90;;;;;;4925703;28;20149;-65
2022/11/07 08:57:26;;;;;;;12.18;2.45;;;13.30;99.90;;;;;;4930625;28;20047;-65
2022/11/07 08:59:52;;;;;;;10.43;2.15;;;13.40;99.90;;;;;;4920300;29;20028;-65
2022/11/07 09:02:17;;;;;;;15.23;2.30;;;13.50;99.90;;;;;;4925852;28;20046;-65
2022/11/07 09:04:43;;;;;;;12.98;2.33;;;13.50;99.90;;;;;;4934695;28;20062;-65
2022/11/07 09:07:08;;;;;;;10.98;2.10;;;13.50;99.90;;;;;;4928736;28;20059;-65
2022/11/07 09:09:34;;;;;;;11.73;2.28;;;13.60;99.90;;;;;;4919191;29;20510;-64
2022/11/07 09:12:00;;;;;;;11.00;2.30;;;13.70;99.90;;;;;;4924607;28;20046;-65
2022/11/07 09:14:26;;;;;;;11.63;2.40;;;13.70;99.90;;;;;;4919078;28;20439;-65
2022/11/07 09:16:51;;;;;;;13.93;2.53;;;13.70;99.90;;;;;;4920885;29;20601;-65
2022/11/07 09:19:17;;;;;;;9.98;2.30;;;13.70;99.90;;;;;;4923058;28;20039;-64
2022/11/07 09:21:44;;;;;;;10.20;2.17;;;13.70;99.90;;;;;;4918034;29;20046;-65
2022/11/07 09:24:10;;;;;;;13.38;2.20;;;13.70;99.90;;;;;;4921804;29;20028;-65
2022/11/07 09:26:35;;;;;;;9.88;2.28;;;13.80;99.90;;;;;;4924783;29;20138;-65
2022/11/07 09:29:01;;;;;;;10.85;2.03;;;13.70;99.90;;;;;;4920229;29;20040;-65
2022/11/07 09:31:26;;;;;;;10.35;2.53;;;13.70;99.90;;;;;;4938760;28;20046;-65
2022/11/07 09:33:52;;;;;;;12.55;2.60;;;13.80;99.90;;;;;;4964197;28;20061;-65
2022/11/07 09:36:17;;;;;;;11.93;2.42;;;13.80;99.90;;;;;;4961015;28;20502;-64
2022/11/07 09:38:43;;;;;;;10.27;1.90;;;13.80;99.90;;;;;;4960184;28;20545;-64
2022/11/07 09:41:11;;;;;;;14.02;2.45;;;13.90;99.90;;;;;;4957947;28;20035;-65
2022/11/07 09:43:57;;;;;;;9.85;2.17;;;13.70;99.90;;;;;;4957700;28;20059;-65
2022/11/07 09:46:50;;;;;;;10.52;1.98;;;13.60;99.90;;;;;;4962608;28;20463;-64
2022/11/07 09:49:38;;;;;;;9.18;1.95;;;13.60;99.90;;;;;;4959027;28;20576;-64
2022/11/07 09:52:12;;;;;;;8.70;1.95;;;13.60;99.90;;;;;;4958459;28;20045;-65
2022/11/07 09:54:43;;;;;;;11.40;2.00;;;13.60;99.90;;;;;;4960364;28;20137;-64
2022/11/07 09:57:13;;;;;;;12.27;2.03;;;13.60;99.90;;;;;;4965970;28;20042;-64
2022/11/07 09:59:45;;;;;;;11.43;2.40;;;13.50;99.90;;;;;;4962957;28;20034;-64
2022/11/07 10:02:14;;;;;;;9.15;2.17;;;13.60;99.90;;;;;;4978375;28;20148;-65
2022/11/07 10:04:40;;;;;;;12.38;2.45;;;13.60;99.90;;;;;;4960259;28;20146;-64
2022/11/07 10:07:19;;;;;;;9.50;2.33;;;13.60;99.90;;;;;;4962117;28;20058;-64
2022/11/07 10:10:12;;;;;;;14.43;2.50;;;13.50;99.90;;;;;;4959576;28;20436;-64
2022/11/07 10:12:53;;;;;;;12.00;2.30;;;13.60;99.90;;;;;;4981654;28;20045;-64
2022/11/07 10:15:37;;;;;;;12.18;2.45;;;13.60;99.90;;;;;;4971131;28;20033;-64
2022/11/07 10:18:20;;;;;;;12.15;2.20;;;13.60;99.90;;;;;;4966437;28;20031;-64
2022/11/07 10:21:04;;;;;;;13.70;2.10;;;13.60;99.90;;;;;;4957740;28;20035;-64
2022/11/07 10:23:48;;;;;;;14.52;3.28;;;13.60;99.90;;;;;;4965258;28;20081;-64
2022/11/07 10:26:18;;;;;;;10.65;1.85;;;13.50;99.90;;;;;;4961495;28;20466;-64
2022/11/07 10:28:59;;;;;;;13.50;2.63;;;13.50;99.90;;;;;;4958339;28;20517;-64
2022/11/07 10:31:32;;;;;;;16.02;3.78;;;13.60;99.90;;;;;;4935637;28;20565;-64
2022/11/07 10:34:16;;;;;;;30.80;11.68;;;13.70;99.90;;;;;;4939742;28;20055;-64
2022/11/07 10:36:42;;;;;;;25.30;8.88;;;13.80;99.90;;;;;;4938637;28;20039;-64
2022/11/07 10:39:16;;;;;;;15.05;3.42;;;13.80;99.90;;;;;;4942682;28;20051;-64
2022/11/07 10:42:11;;;;;;;11.50;2.90;;;13.90;99.90;;;;;;4944956;28;20401;-64
2022/11/07 10:44:40;;;;;;;14.77;2.67;;;13.90;99.90;;;;;;4942381;28;20633;-64
2022/11/07 10:47:17;;;;;;;13.25;2.40;;;13.90;99.90;;;;;;4941516;28;20047;-64
2022/11/07 10:49:56;;;;;;;12.63;2.60;;;13.90;99.90;;;;;;4938226;28;20054;-64
2022/11/07 10:52:22;;;;;;;11.73;2.58;;;14.00;99.90;;;;;;4938792;28;20046;-64
2022/11/07 10:54:48;;;;;;;15.25;3.40;;;14.10;99.90;;;;;;4946326;28;20049;-64
2022/11/07 10:57:22;;;;;;;14.45;2.80;;;14.20;99.90;;;;;;4941055;28;20035;-64
2022/11/07 10:59:50;;;;;;;10.13;2.35;;;14.30;99.90;;;;;;4940625;28;20059;-64
2022/11/07 11:02:31;;;;;;;13.07;2.17;;;14.40;99.90;;;;;;4939412;28;20623;-64
2022/11/07 11:05:01;;;;;;;15.05;2.72;;;14.50;99.90;;;;;;4935334;28;20043;-64
2022/11/07 11:07:36;;;;;;;14.60;2.55;;;14.40;99.90;;;;;;4964796;28;20366;-64
2022/11/07 11:10:15;;;;;;;18.77;3.00;;;14.50;99.90;;;;;;4957588;28;20039;-64
2022/11/07 11:12:45;;;;;;;13.40;2.80;;;14.40;99.90;;;;;;4960149;28;20035;-64
2022/11/07 11:15:18;;;;;;;13.27;3.13;;;14.40;99.90;;;;;;4958249;28;20521;-64
2022/11/07 11:17:44;;;;;;;14.30;3.08;;;14.40;99.90;;;;;;4963832;28;20798;-64
2022/11/07 11:20:28;;;;;;;15.07;2.50;;;14.30;99.90;;;;;;4959432;28;20060;-64
2022/11/07 11:22:54;;;;;;;11.15;2.53;;;14.40;99.90;;;;;;4957961;28;20049;-65
2022/11/07 11:25:22;;;;;;;11.50;3.17;;;14.40;99.90;;;;;;4960266;28;20047;-64
2022/11/07 11:27:53;;;;;;;14.98;2.80;;;14.40;99.90;;;;;;4956758;28;20116;-64
2022/11/07 11:30:29;;;;;;;15.02;3.13;;;14.50;99.90;;;;;;4959472;28;20463;-64
2022/11/07 11:33:11;;;;;;;11.18;2.70;;;14.50;99.90;;;;;;4958430;28;20043;-67
2022/11/07 11:35:48;;;;;;;15.18;2.88;;;14.50;99.90;;;;;;4961151;28;20031;-66
2022/11/07 11:38:22;;;;;;;14.57;3.97;;;14.50;99.90;;;;;;4958881;28;20035;-66
2022/11/07 11:41:10;;;;;;;13.50;4.40;;;14.40;99.90;;;;;;4957991;28;20053;-66
2022/11/07 11:43:50;;;;;;;13.35;3.67;;;14.40;99.90;;;;;;4951570;28;20275;-66
2022/11/07 11:46:39;;;;;;;16.90;3.63;;;14.40;99.90;;;;;;4961378;28;20046;-65
2022/11/07 11:49:33;;;;;;;13.93;3.22;;;14.50;99.90;;;;;;4961466;28;20026;-66
2022/11/07 11:52:06;;;;;;;14.13;2.75;;;14.50;99.90;;;;;;4959330;28;20033;-66
2022/11/07 11:54:33;;;;;;;13.13;3.08;;;14.60;99.90;;;;;;4956087;28;20038;-66
2022/11/07 11:57:04;;;;;;;9.90;2.70;;;14.70;99.90;;;;;;4961598;28;20030;-66
2022/11/07 11:59:38;;;;;;;11.15;2.80;;;14.70;99.90;;;;;;4959082;28;20589;-66
2022/11/07 12:02:37;;;;;;;17.20;3.85;;;14.70;99.90;;;;;;4959003;28;20938;-66
2022/11/07 12:05:14;;;;;;;21.25;3.55;;;14.70;99.90;;;;;;4959498;28;20050;-66
2022/11/07 12:07:48;;;;;;;11.35;2.65;;;14.80;99.90;;;;;;4956370;28;20489;-66
2022/11/07 12:10:27;;;;;;;13.95;3.20;;;15.00;99.90;;;;;;4962544;28;20034;-66
2022/11/07 12:13:25;;;;;;;14.55;2.97;;;15.00;99.90;;;;;;4960109;28;20629;-66
2022/11/07 12:16:12;;;;;;;15.30;2.67;;;15.00;99.90;;;;;;4947264;28;20066;-66
2022/11/07 12:18:58;;;;;;;11.82;2.72;;;15.00;99.90;;;;;;4938150;28;20062;-66
2022/11/07 12:21:33;;;;;;;19.92;3.83;;;15.10;99.90;;;;;;4941718;28;20134;-66
2022/11/07 12:24:14;;;;;;;9.93;3.17;;;15.00;99.90;;;;;;4939200;28;20121;-66
2022/11/07 12:26:40;;;;;;;12.82;3.50;;;15.10;99.90;;;;;;4939972;28;20038;-66
2022/11/07 12:29:19;;;;;;;8.85;3.00;;;15.20;99.90;;;;;;4936379;28;20513;-66
2022/11/07 12:32:22;;;;;;;11.05;2.47;;;15.10;99.90;;;;;;4941566;28;20525;-66
2022/11/07 12:35:28;;;;;;;16.05;2.70;;;15.10;99.90;;;;;;4950788;28;20049;-66
2022/11/07 12:38:17;;;;;;;10.98;2.47;;;15.00;99.90;;;;;;4973935;28;20678;-66
2022/11/07 12:41:06;;;;;;;11.25;2.75;;;15.20;99.90;;;;;;4959271;28;20481;-66
2022/11/07 12:43:57;;;;;;;8.05;2.00;;;15.10;99.90;;;;;;4934276;28;20024;-66
2022/11/07 12:46:50;;;;;;;13.13;2.60;;;15.00;99.90;;;;;;4937232;28;20031;-66
2022/11/07 12:49:25;;;;;;;12.02;2.10;;;15.00;99.90;;;;;;4934508;28;20019;-66
2022/11/07 12:52:16;;;;;;;12.82;2.22;;;15.00;99.90;;;;;;4944725;28;20582;-66
2022/11/07 12:54:54;;;;;;;12.50;2.55;;;15.10;99.90;;;;;;4930868;28;20083;-66
2022/11/07 12:57:23;;;;;;;13.20;2.50;;;14.90;99.90;;;;;;4946847;28;20031;-66
2022/11/07 13:00:23;;;;;;;9.38;2.35;;;15.10;99.90;;;;;;4946866;28;20114;-66
2022/11/07 13:03:10;;;;;;;13.18;2.13;;;15.00;99.90;;;;;;4936854;28;20170;-66
2022/11/07 13:06:00;;;;;;;10.13;2.17;;;15.00;99.90;;;;;;4937054;28;20039;-66
2022/11/07 13:08:53;;;;;;;14.82;2.53;;;14.90;99.90;;;;;;4938125;28;20431;-66
2022/11/07 13:11:46;;;;;;;7.35;2.35;;;15.00;99.90;;;;;;4934998;28;20118;-66
2022/11/07 13:14:20;;;;;;;10.23;2.33;;;15.10;99.90;;;;;;4939527;28;20036;-65
2022/11/07 13:17:23;;;;;;;13.40;5.13;;;15.10;99.90;;;;;;4955566;28;20035;-66
2022/11/07 13:20:16;;;;;;;11.38;2.47;;;15.00;99.90;;;;;;4962886;28;20445;-65
2022/11/07 13:22:41;;;;;;;10.70;2.47;;;15.10;99.90;;;;;;4963782;28;20529;-65
2022/11/07 13:25:23;;;;;;;12.00;2.25;;;15.00;99.90;;;;;;4959086;28;20058;-65
2022/11/07 13:27:54;;;;;;;6.63;2.00;;;15.10;99.90;;;;;;4960283;28;20058;-66
2022/11/07 13:30:21;;;;;;;7.88;2.00;;;15.00;99.90;;;;;;4963208;28;20039;-66
2022/11/07 13:32:49;;;;;;;8.30;1.73;;;15.10;99.90;;;;;;4958729;28;20138;-65
2022/11/07 13:35:25;;;;;;;12.15;2.45;;;15.10;99.90;;;;;;4968565;28;20415;-66
2022/11/07 13:37:59;;;;;;;8.40;2.30;;;15.10;99.90;;;;;;4939830;28;20118;-65
2022/11/07 13:40:57;;;;;;;9.00;1.70;;;15.10;99.90;;;;;;4949913;28;20707;-65
2022/11/07 13:43:41;;;;;;;10.40;2.40;;;15.00;99.90;;;;;;4934918;28;20114;-65
2022/11/07 13:46:24;;;;;;;10.10;2.17;;;15.10;99.90;;;;;;4942606;28;20062;-65
2022/11/07 13:48:58;;;;;;;8.32;2.35;;;15.10;99.90;;;;;;4942309;28;20035;-66
2022/11/07 13:51:47;;;;;;;12.15;2.50;;;15.10;99.90;;;;;;4939265;28;20050;-65
2022/11/07 13:54:37;;;;;;;14.70;2.78;;;15.20;99.90;;;;;;4938922;28;20039;-65
2022/11/07 13:57:14;;;;;;;9.73;2.75;;;15.10;99.90;;;;;;4940039;28;20088;-65
2022/11/07 13:59:55;;;;;;;11.88;3.50;;;15.10;99.90;;;;;;4943871;28;20082;-65
2022/11/07 14:02:28;;;;;;;7.88;2.40;;;15.10;99.90;;;;;;4947162;28;20058;-65
2022/11/07 14:05:13;;;;;;;11.25;3.13;;;15.10;99.90;;;;;;4963694;28;20031;-65
2022/11/07 14:07:42;;;;;;;11.65;2.88;;;15.00;99.90;;;;;;4960826;28;20474;-66
2022/11/07 14:10:38;;;;;;;8.50;2.85;;;15.00;99.90;;;;;;4964801;28;20038;-65
2022/11/07 14:13:10;;;;;;;8.95;2.20;;;15.00;99.90;;;;;;4946735;28;20559;-65
2022/11/07 14:15:46;;;;;;;8.25;2.33;;;15.00;99.90;;;;;;4963514;28;20468;-65
2022/11/07 14:18:16;;;;;;;9.30;2.40;;;15.00;99.90;;;;;;4965694;28;20130;-66
2022/11/07 14:20:54;;;;;;;8.88;2.72;;;15.00;99.90;;;;;;4951377;28;20051;-65
2022/11/07 14:23:22;;;;;;;13.95;2.80;;;15.00;99.90;;;;;;4951060;28;20487;-65
2022/11/07 14:26:00;;;;;;;11.27;2.92;;;15.00;99.90;;;;;;4964759;28;20174;-66
2022/11/07 14:28:37;;;;;;;14.35;3.28;;;15.00;99.90;;;;;;4964759;28;20063;-65
2022/11/07 14:31:05;;;;;;;12.20;2.95;;;14.90;99.90;;;;;;4981864;28;20321;-65
2022/11/07 14:33:31;;;;;;;13.10;2.92;;;14.90;99.90;;;;;;4945477;28;20039;-65
2022/11/07 14:36:03;;;;;;;9.20;2.40;;;14.90;99.90;;;;;;4942557;28;20027;-65
2022/11/07 14:38:29;;;;;;;9.90;2.70;;;14.90;99.90;;;;;;4926387;28;20055;-65
2022/11/07 14:40:58;;;;;;;9.85;2.50;;;15.00;99.90;;;;;;4944309;28;20039;-65
2022/11/07 14:43:26;;;;;;;11.65;2.92;;;14.90;99.90;;;;;;4946309;28;20050;-65
2022/11/07 14:45:59;;;;;;;11.45;2.40;;;15.00;99.90;;;;;;4945426;28;20101;-65
2022/11/07 14:48:27;;;;;;;12.13;2.40;;;15.00;99.90;;;;;;4946011;28;20086;-65
2022/11/07 14:50:52;;;;;;;8.70;3.38;;;15.10;99.90;;;;;;4949725;28;20042;-65
2022/11/07 14:53:32;;;;;;;11.02;2.35;;;15.10;99.90;;;;;;4941764;28;20066;-65
2022/11/07 14:56:04;;;;;;;9.63;2.50;;;15.10;99.90;;;;;;4943093;28;20035;-66
2022/11/07 14:58:30;;;;;;;9.48;2.67;;;15.00;99.90;;;;;;4949344;28;20042;-65
2022/11/07 15:01:11;;;;;;;8.38;2.30;;;15.10;99.90;;;;;;4942362;28;20177;-65
2022/11/07 15:03:50;;;;;;;6.75;1.95;;;15.00;99.90;;;;;;4943058;28;20107;-65
2022/11/07 15:06:34;;;;;;;9.55;2.50;;;15.00;99.90;;;;;;4942658;28;20047;-65
2022/11/07 15:09:06;;;;;;;7.43;2.17;;;15.00;99.90;;;;;;4924957;28;20510;-65
2022/11/07 15:11:39;;;;;;;9.73;2.97;;;15.00;99.90;;;;;;4945580;28;20039;-65
2022/11/07 15:14:21;;;;;;;10.40;2.20;;;14.90;99.90;;;;;;4947520;28;20035;-65
2022/11/07 15:16:48;;;;;;;14.60;2.67;;;14.90;99.90;;;;;;4945473;28;20043;-65
2022/11/07 15:19:21;;;;;;;10.50;2.45;;;14.90;99.90;;;;;;4937008;28;20047;-65
2022/11/07 15:21:52;;;;;;;8.93;2.13;;;14.90;99.90;;;;;;4944256;28;20043;-65
2022/11/07 15:24:43;;;;;;;10.45;2.40;;;14.90;99.90;;;;;;4937147;28;20042;-65
2022/11/07 15:27:12;;;;;;;8.27;2.45;;;14.80;99.90;;;;;;4941742;28;20041;-66
2022/11/07 15:29:38;;;;;;;9.45;2.30;;;14.80;99.90;;;;;;4943023;28;20097;-65
2022/11/07 15:32:17;;;;;;;10.02;2.45;;;14.70;99.90;;;;;;4939380;28;20757;-65
2022/11/07 15:34:43;;;;;;;8.35;1.90;;;14.80;99.90;;;;;;4934962;28;20063;-65
2022/11/07 15:37:11;;;;;;;10.05;2.33;;;14.90;99.90;;;;;;4926259;28;20089;-65
2022/11/07 15:39:37;;;;;;;12.52;4.30;;;14.80;99.90;;;;;;4945546;28;20089;-66
2022/11/07 15:42:02;;;;;;;10.95;2.47;;;14.80;99.90;;;;;;4945401;28;20042;-66
2022/11/07 15:44:28;;;;;;;8.05;2.15;;;14.70;99.90;;;;;;4942912;28;20031;-65
2022/11/07 15:46:53;;;;;;;7.15;2.30;;;14.80;99.90;;;;;;4950162;28;20101;-65
2022/11/07 15:49:19;;;;;;;4.47;1.92;;;14.70;99.90;;;;;;4945373;28;20700;-65
2022/11/07 15:51:44;;;;;;;9.88;2.00;;;14.60;99.90;;;;;;4949171;28;20062;-65
2022/11/07 15:54:13;;;;;;;15.60;10.18;;;14.60;99.90;;;;;;4940899;28;20058;-64
2022/11/07 15:56:40;;;;;;;10.68;3.22;;;14.60;99.90;;;;;;4941407;28;20090;-65
2022/11/07 15:59:18;;;;;;;7.03;2.80;;;14.60;99.90;;;;;;4942809;28;20122;-65
2022/11/07 16:01:44;;;;;;;9.60;3.40;;;14.50;99.90;;;;;;4944816;28;20056;-65
2022/11/07 16:04:10;;;;;;;9.07;3.20;;;14.60;99.90;;;;;;4944731;28;20110;-64